Lenox Township, Michigan
Current Conditions -  °F | °C
As of 10:58 PM on Tuesday 25 Nov 2014 (Local Time) from KMTC Reporting Station
Overcast Overcast  
Wind Chill: 32°   Ceiling: 2700
Heat Index: 32°   Visibility: 10mi
Dew Point: 22°   Wind: 1mph
Humidity: 69%   Direction: 210°SSW
Pressure: 30.18"   Gusts: NA
Location:  42.7851°N, 82.803°W
Report Text: KMTC 260358Z AUTO 21001KT 10SM OVC027 00/M05 A3018 RMK AO2 SLP230 T10021053
Loading
Personal Weather Stations






























Interactive Weather Map New forecast layout! Learn more

10-Day Weather Forecast

Advertisements
Track Severe Weather on mobile